sensor_id;sensor_type;location;lat;lon;timestamp;pressure;altitude;pressure_sealevel;temperature;humidity
81162;BME280;70638;-33.792;151.032;2023-11-22T00:01:06;101496.88;;;30.11;43.88
81162;BME280;70638;-33.792;151.032;2023-11-22T00:03:36;101506.12;;;31.14;40.65
81162;BME280;70638;-33.792;151.032;2023-11-22T00:06:07;101496.51;;;30.30;41.32
81162;BME280;70638;-33.792;151.032;2023-11-22T00:08:37;101502.84;;;30.28;41.61
81162;BME280;70638;-33.792;151.032;2023-11-22T00:11:08;101505.44;;;29.88;40.42
81162;BME280;70638;-33.792;151.032;2023-11-22T00:13:37;101500.02;;;29.29;42.51
81162;BME280;70638;-33.792;151.032;2023-11-22T00:16:10;101503.09;;;29.51;42.13
81162;BME280;70638;-33.792;151.032;2023-11-22T00:18:40;101494.34;;;28.25;44.16
81162;BME280;70638;-33.792;151.032;2023-11-22T00:21:09;101505.33;;;26.38;49.66
81162;BME280;70638;-33.792;151.032;2023-11-22T00:23:40;101510.68;;;25.73;51.20
81162;BME280;70638;-33.792;151.032;2023-11-22T00:26:11;101506.85;;;26.68;48.63
81162;BME280;70638;-33.792;151.032;2023-11-22T00:28:42;101499.19;;;26.36;49.49
81162;BME280;70638;-33.792;151.032;2023-11-22T00:31:13;101510.62;;;26.63;47.99
81162;BME280;70638;-33.792;151.032;2023-11-22T00:33:43;101513.80;;;26.52;48.06
81162;BME280;70638;-33.792;151.032;2023-11-22T00:36:14;101496.38;;;26.94;48.55
81162;BME280;70638;-33.792;151.032;2023-11-22T00:38:44;101499.55;;;26.14;49.61
81162;BME280;70638;-33.792;151.032;2023-11-22T00:41:16;101494.83;;;26.23;49.55
81162;BME280;70638;-33.792;151.032;2023-11-22T00:43:45;101498.63;;;25.83;49.31
81162;BME280;70638;-33.792;151.032;2023-11-22T00:46:17;101490.02;;;26.49;48.46
81162;BME280;70638;-33.792;151.032;2023-11-22T00:48:46;101480.59;;;27.30;48.54
81162;BME280;70638;-33.792;151.032;2023-11-22T00:51:18;101481.06;;;27.31;46.09
81162;BME280;70638;-33.792;151.032;2023-11-22T00:53:47;101473.00;;;27.33;46.86
81162;BME280;70638;-33.792;151.032;2023-11-22T00:56:18;101483.91;;;26.73;50.46
81162;BME280;70638;-33.792;151.032;2023-11-22T00:58:52;101472.02;;;26.39;50.79
81162;BME280;70638;-33.792;151.032;2023-11-22T01:01:20;101479.49;;;26.76;49.95
81162;BME280;70638;-33.792;151.032;2023-11-22T01:03:51;101469.73;;;25.85;51.03
81162;BME280;70638;-33.792;151.032;2023-11-22T01:06:21;101462.88;;;26.04;50.70
81162;BME280;70638;-33.792;151.032;2023-11-22T01:08:51;101472.48;;;25.61;51.31
81162;BME280;70638;-33.792;151.032;2023-11-22T01:11:21;101470.90;;;25.32;52.02
81162;BME280;70638;-33.792;151.032;2023-11-22T01:13:52;101468.59;;;25.27;51.31
81162;BME280;70638;-33.792;151.032;2023-11-22T01:16:23;101464.53;;;25.52;51.29
81162;BME280;70638;-33.792;151.032;2023-11-22T01:18:54;101471.19;;;25.61;51.97
81162;BME280;70638;-33.792;151.032;2023-11-22T01:21:23;101453.23;;;25.83;50.59
81162;BME280;70638;-33.792;151.032;2023-11-22T01:23:54;101455.99;;;25.67;50.95
81162;BME280;70638;-33.792;151.032;2023-11-22T01:26:25;101456.08;;;25.56;51.63
81162;BME280;70638;-33.792;151.032;2023-11-22T01:28:55;101440.90;;;25.76;50.37
81162;BME280;70638;-33.792;151.032;2023-11-22T01:31:26;101443.08;;;25.39;51.03
81162;BME280;70638;-33.792;151.032;2023-11-22T01:33:57;101443.64;;;25.48;50.58
81162;BME280;70638;-33.792;151.032;2023-11-22T01:36:28;101433.20;;;25.59;51.08
81162;BME280;70638;-33.792;151.032;2023-11-22T01:38:58;101438.48;;;25.90;50.67
81162;BME280;70638;-33.792;151.032;2023-11-22T01:41:28;101423.61;;;25.53;50.62
81162;BME280;70638;-33.792;151.032;2023-11-22T01:44:00;101435.81;;;25.74;51.44
81162;BME280;70638;-33.792;151.032;2023-11-22T01:46:29;101420.76;;;26.15;50.34
81162;BME280;70638;-33.792;151.032;2023-11-22T01:49:00;101421.17;;;26.03;50.18
81162;BME280;70638;-33.792;151.032;2023-11-22T01:51:30;101419.86;;;25.71;50.42
81162;BME280;70638;-33.792;151.032;2023-11-22T01:54:00;101421.56;;;25.39;51.36
81162;BME280;70638;-33.792;151.032;2023-11-22T01:56:31;101408.74;;;25.55;51.21
81162;BME280;70638;-33.792;151.032;2023-11-22T01:59:03;101402.66;;;25.77;50.69
81162;BME280;70638;-33.792;151.032;2023-11-22T02:01:33;101406.59;;;26.04;50.28
81162;BME280;70638;-33.792;151.032;2023-11-22T02:04:04;101387.99;;;25.71;52.37
81162;BME280;70638;-33.792;151.032;2023-11-22T02:06:34;101391.66;;;26.31;49.79
81162;BME280;70638;-33.792;151.032;2023-11-22T02:09:04;101397.58;;;25.66;51.40
81162;BME280;70638;-33.792;151.032;2023-11-22T02:11:35;101404.45;;;25.70;50.85
81162;BME280;70638;-33.792;151.032;2023-11-22T02:14:05;101400.95;;;25.15;51.97
81162;BME280;70638;-33.792;151.032;2023-11-22T02:16:37;101382.86;;;25.20;52.43
81162;BME280;70638;-33.792;151.032;2023-11-22T02:19:14;101392.80;;;25.36;51.15
81162;BME280;70638;-33.792;151.032;2023-11-22T02:21:37;101376.34;;;25.39;50.45
81162;BME280;70638;-33.792;151.032;2023-11-22T02:24:07;101375.74;;;25.27;51.03
81162;BME280;70638;-33.792;151.032;2023-11-22T02:26:43;101380.72;;;25.24;52.86
81162;BME280;70638;-33.792;151.032;2023-11-22T02:29:12;101376.34;;;25.26;53.82
81162;BME280;70638;-33.792;151.032;2023-11-22T02:31:43;101403.06;;;24.88;54.64
81162;BME280;70638;-33.792;151.032;2023-11-22T02:34:11;101373.05;;;24.80;53.86
81162;BME280;70638;-33.792;151.032;2023-11-22T02:36:42;101372.72;;;25.40;53.70
81162;BME280;70638;-33.792;151.032;2023-11-22T02:39:13;101364.67;;;25.80;55.84
81162;BME280;70638;-33.792;151.032;2023-11-22T02:41:42;101365.76;;;25.65;54.22
81162;BME280;70638;-33.792;151.032;2023-11-22T02:44:13;101376.12;;;25.45;55.05
81162;BME280;70638;-33.792;151.032;2023-11-22T02:46:43;101361.92;;;25.15;56.32
81162;BME280;70638;-33.792;151.032;2023-11-22T02:49:14;101370.81;;;25.17;55.65
81162;BME280;70638;-33.792;151.032;2023-11-22T02:51:44;101387.77;;;24.69;56.25
81162;BME280;70638;-33.792;151.032;2023-11-22T02:54:14;101373.53;;;24.46;57.51
81162;BME280;70638;-33.792;151.032;2023-11-22T02:56:45;101380.18;;;24.85;56.44
81162;BME280;70638;-33.792;151.032;2023-11-22T02:59:17;101367.50;;;25.07;56.51
81162;BME280;70638;-33.792;151.032;2023-11-22T03:01:49;101369.27;;;25.44;56.13
81162;BME280;70638;-33.792;151.032;2023-11-22T03:04:17;101376.66;;;25.51;55.02
81162;BME280;70638;-33.792;151.032;2023-11-22T03:06:48;101364.25;;;25.25;56.18
81162;BME280;70638;-33.792;151.032;2023-11-22T03:09:18;101362.88;;;25.31;55.88
81162;BME280;70638;-33.792;151.032;2023-11-22T03:11:49;101368.36;;;25.14;55.02
81162;BME280;70638;-33.792;151.032;2023-11-22T03:14:20;101363.27;;;25.08;54.99
81162;BME280;70638;-33.792;151.032;2023-11-22T03:16:49;101357.24;;;24.98;55.32
81162;BME280;70638;-33.792;151.032;2023-11-22T03:19:22;101365.28;;;25.28;54.50
81162;BME280;70638;-33.792;151.032;2023-11-22T03:21:50;101357.92;;;25.53;54.87
81162;BME280;70638;-33.792;151.032;2023-11-22T03:24:21;101357.44;;;25.64;55.33
81162;BME280;70638;-33.792;151.032;2023-11-22T03:26:52;101362.66;;;25.83;54.43
81162;BME280;70638;-33.792;151.032;2023-11-22T03:29:21;101353.45;;;25.62;55.54
81162;BME280;70638;-33.792;151.032;2023-11-22T03:31:53;101355.27;;;24.94;56.77
81162;BME280;70638;-33.792;151.032;2023-11-22T03:34:24;101382.36;;;24.73;57.58
81162;BME280;70638;-33.792;151.032;2023-11-22T03:36:54;101364.77;;;24.48;58.79
81162;BME280;70638;-33.792;151.032;2023-11-22T03:39:24;101359.77;;;24.64;59.05
81162;BME280;70638;-33.792;151.032;2023-11-22T03:41:54;101363.44;;;24.84;58.04
81162;BME280;70638;-33.792;151.032;2023-11-22T03:44:25;101359.75;;;24.83;57.30
81162;BME280;70638;-33.792;151.032;2023-11-22T03:46:56;101360.11;;;24.97;56.79
81162;BME280;70638;-33.792;151.032;2023-11-22T03:49:26;101357.31;;;25.02;56.32
81162;BME280;70638;-33.792;151.032;2023-11-22T03:51:58;101363.62;;;24.87;56.20
81162;BME280;70638;-33.792;151.032;2023-11-22T03:54:27;101370.48;;;24.66;57.49
81162;BME280;70638;-33.792;151.032;2023-11-22T03:56:58;101349.80;;;24.93;57.18
81162;BME280;70638;-33.792;151.032;2023-11-22T03:59:29;101355.64;;;24.93;56.63
81162;BME280;70638;-33.792;151.032;2023-11-22T04:01:59;101354.91;;;24.83;57.09
81162;BME280;70638;-33.792;151.032;2023-11-22T04:04:30;101363.45;;;24.54;57.65
81162;BME280;70638;-33.792;151.032;2023-11-22T04:07:01;101368.55;;;24.71;57.37
81162;BME280;70638;-33.792;151.032;2023-11-22T04:09:32;101370.09;;;24.59;57.96
81162;BME280;70638;-33.792;151.032;2023-11-22T04:12:03;101345.31;;;24.97;56.70
81162;BME280;70638;-33.792;151.032;2023-11-22T04:14:34;101362.23;;;24.98;56.31
81162;BME280;70638;-33.792;151.032;2023-11-22T04:17:05;101346.84;;;25.28;55.86
81162;BME280;70638;-33.792;151.032;2023-11-22T04:19:36;101355.00;;;24.98;55.59
81162;BME280;70638;-33.792;151.032;2023-11-22T04:22:06;101361.12;;;24.61;56.89
81162;BME280;70638;-33.792;151.032;2023-11-22T04:24:37;101351.91;;;24.94;59.62
81162;BME280;70638;-33.792;151.032;2023-11-22T04:27:08;101350.73;;;25.09;56.75
81162;BME280;70638;-33.792;151.032;2023-11-22T04:29:39;101352.97;;;24.94;57.46
81162;BME280;70638;-33.792;151.032;2023-11-22T04:32:10;101356.97;;;24.34;58.35
81162;BME280;70638;-33.792;151.032;2023-11-22T04:34:40;101355.02;;;24.33;58.63
81162;BME280;70638;-33.792;151.032;2023-11-22T04:37:10;101352.77;;;24.21;59.01
81162;BME280;70638;-33.792;151.032;2023-11-22T04:39:41;101357.77;;;24.37;58.95
81162;BME280;70638;-33.792;151.032;2023-11-22T04:42:12;101360.00;;;24.37;57.57
81162;BME280;70638;-33.792;151.032;2023-11-22T04:44:42;101356.48;;;24.46;57.77
81162;BME280;70638;-33.792;151.032;2023-11-22T04:47:13;101362.72;;;23.76;58.50
81162;BME280;70638;-33.792;151.032;2023-11-22T04:49:44;101362.55;;;24.10;58.29
81162;BME280;70638;-33.792;151.032;2023-11-22T04:52:17;101366.52;;;24.37;57.99
81162;BME280;70638;-33.792;151.032;2023-11-22T04:54:45;101357.65;;;24.19;57.31
81162;BME280;70638;-33.792;151.032;2023-11-22T04:57:16;101348.26;;;23.91;57.86
81162;BME280;70638;-33.792;151.032;2023-11-22T04:59:47;101352.58;;;24.03;58.52
81162;BME280;70638;-33.792;151.032;2023-11-22T05:02:18;101342.01;;;24.59;57.79
81162;BME280;70638;-33.792;151.032;2023-11-22T05:04:52;101333.19;;;24.64;57.45
81162;BME280;70638;-33.792;151.032;2023-11-22T05:07:18;101339.64;;;24.45;57.88
81162;BME280;70638;-33.792;151.032;2023-11-22T05:09:49;101341.42;;;24.18;58.69
81162;BME280;70638;-33.792;151.032;2023-11-22T05:12:20;101351.58;;;23.97;59.23
81162;BME280;70638;-33.792;151.032;2023-11-22T05:14:51;101349.91;;;24.23;59.12
81162;BME280;70638;-33.792;151.032;2023-11-22T05:17:21;101352.69;;;24.37;58.28
81162;BME280;70638;-33.792;151.032;2023-11-22T05:19:51;101368.66;;;24.10;58.50
81162;BME280;70638;-33.792;151.032;2023-11-22T05:22:22;101370.03;;;23.98;58.43
81162;BME280;70638;-33.792;151.032;2023-11-22T05:24:53;101349.75;;;24.03;58.44
81162;BME280;70638;-33.792;151.032;2023-11-22T05:27:23;101364.44;;;24.07;56.76
81162;BME280;70638;-33.792;151.032;2023-11-22T05:29:54;101361.14;;;23.92;58.21
81162;BME280;70638;-33.792;151.032;2023-11-22T05:32:25;101353.84;;;23.88;58.74
81162;BME280;70638;-33.792;151.032;2023-11-22T05:34:56;101350.93;;;23.99;57.96
81162;BME280;70638;-33.792;151.032;2023-11-22T05:37:27;101346.03;;;24.16;57.87
81162;BME280;70638;-33.792;151.032;2023-11-22T05:39:58;101348.19;;;24.12;58.13
81162;BME280;70638;-33.792;151.032;2023-11-22T05:42:28;101350.73;;;23.83;58.90
81162;BME280;70638;-33.792;151.032;2023-11-22T05:44:59;101347.95;;;23.65;60.05
81162;BME280;70638;-33.792;151.032;2023-11-22T05:47:30;101356.38;;;23.34;60.70
81162;BME280;70638;-33.792;151.032;2023-11-22T05:49:59;101346.42;;;23.76;60.50
81162;BME280;70638;-33.792;151.032;2023-11-22T05:52:31;101346.78;;;23.83;59.96
81162;BME280;70638;-33.792;151.032;2023-11-22T05:55:01;101348.34;;;24.00;59.87
81162;BME280;70638;-33.792;151.032;2023-11-22T05:57:31;101336.73;;;23.84;60.33
81162;BME280;70638;-33.792;151.032;2023-11-22T06:00:02;101345.84;;;24.09;60.35
81162;BME280;70638;-33.792;151.032;2023-11-22T06:02:32;101341.21;;;23.69;61.78
81162;BME280;70638;-33.792;151.032;2023-11-22T06:05:03;101348.51;;;24.01;61.64
81162;BME280;70638;-33.792;151.032;2023-11-22T06:07:34;101346.12;;;23.50;61.97
81162;BME280;70638;-33.792;151.032;2023-11-22T06:10:06;101342.14;;;23.47;61.77
81162;BME280;70638;-33.792;151.032;2023-11-22T06:12:35;101341.93;;;23.57;60.80
81162;BME280;70638;-33.792;151.032;2023-11-22T06:15:07;101356.16;;;23.64;61.71
81162;BME280;70638;-33.792;151.032;2023-11-22T06:17:37;101368.39;;;23.53;61.23
81162;BME280;70638;-33.792;151.032;2023-11-22T06:20:09;101368.76;;;23.18;62.08
81162;BME280;70638;-33.792;151.032;2023-11-22T06:22:41;101382.59;;;22.88;60.87
81162;BME280;70638;-33.792;151.032;2023-11-22T06:25:11;101382.45;;;22.75;61.56
81162;BME280;70638;-33.792;151.032;2023-11-22T06:27:38;101395.09;;;22.65;61.85
81162;BME280;70638;-33.792;151.032;2023-11-22T06:30:09;101386.59;;;22.49;62.79
81162;BME280;70638;-33.792;151.032;2023-11-22T06:32:39;101388.92;;;22.46;63.52
81162;BME280;70638;-33.792;151.032;2023-11-22T06:35:11;101396.34;;;22.42;62.74
81162;BME280;70638;-33.792;151.032;2023-11-22T06:37:40;101395.75;;;22.42;63.92
81162;BME280;70638;-33.792;151.032;2023-11-22T06:40:11;101398.09;;;22.41;65.74
81162;BME280;70638;-33.792;151.032;2023-11-22T06:42:41;101393.95;;;22.13;67.47
81162;BME280;70638;-33.792;151.032;2023-11-22T06:45:15;101401.62;;;22.19;67.61
81162;BME280;70638;-33.792;151.032;2023-11-22T06:47:42;101400.25;;;22.19;68.32
81162;BME280;70638;-33.792;151.032;2023-11-22T06:50:15;101401.34;;;22.12;67.96
81162;BME280;70638;-33.792;151.032;2023-11-22T06:52:43;101398.64;;;22.23;68.21
81162;BME280;70638;-33.792;151.032;2023-11-22T06:55:14;101406.33;;;22.20;68.37
81162;BME280;70638;-33.792;151.032;2023-11-22T06:57:44;101400.40;;;22.11;68.94
81162;BME280;70638;-33.792;151.032;2023-11-22T07:00:19;101396.47;;;22.10;69.10
81162;BME280;70638;-33.792;151.032;2023-11-22T07:02:46;101400.27;;;22.19;69.26
81162;BME280;70638;-33.792;151.032;2023-11-22T07:05:17;101400.82;;;22.21;69.31
81162;BME280;70638;-33.792;151.032;2023-11-22T07:07:47;101398.98;;;22.19;69.21
81162;BME280;70638;-33.792;151.032;2023-11-22T07:10:18;101401.03;;;22.09;69.29
81162;BME280;70638;-33.792;151.032;2023-11-22T07:12:48;101396.90;;;22.03;69.41
81162;BME280;70638;-33.792;151.032;2023-11-22T07:15:18;101406.36;;;21.91;69.48
81162;BME280;70638;-33.792;151.032;2023-11-22T07:17:49;101400.39;;;21.89;69.99
81162;BME280;70638;-33.792;151.032;2023-11-22T07:20:20;101401.09;;;21.96;69.90
81162;BME280;70638;-33.792;151.032;2023-11-22T07:22:54;101411.41;;;21.99;70.08
81162;BME280;70638;-33.792;151.032;2023-11-22T07:25:22;101417.06;;;21.85;70.22
81162;BME280;70638;-33.792;151.032;2023-11-22T07:27:51;101414.95;;;21.64;70.74
81162;BME280;70638;-33.792;151.032;2023-11-22T07:30:25;101418.53;;;21.66;71.08
81162;BME280;70638;-33.792;151.032;2023-11-22T07:32:51;101427.43;;;21.76;70.47
81162;BME280;70638;-33.792;151.032;2023-11-22T07:35:23;101431.67;;;21.69;69.85
81162;BME280;70638;-33.792;151.032;2023-11-22T07:37:54;101439.58;;;21.65;69.47
81162;BME280;70638;-33.792;151.032;2023-11-22T07:40:24;101436.34;;;21.62;69.85
81162;BME280;70638;-33.792;151.032;2023-11-22T07:42:53;101434.31;;;21.70;70.03
81162;BME280;70638;-33.792;151.032;2023-11-22T07:45:24;101435.78;;;21.69;70.67
81162;BME280;70638;-33.792;151.032;2023-11-22T07:47:55;101436.42;;;21.73;71.01
81162;BME280;70638;-33.792;151.032;2023-11-22T07:50:26;101441.04;;;21.76;71.22
81162;BME280;70638;-33.792;151.032;2023-11-22T07:52:55;101438.28;;;21.69;70.64
81162;BME280;70638;-33.792;151.032;2023-11-22T07:55:26;101442.52;;;21.72;71.01
81162;BME280;70638;-33.792;151.032;2023-11-22T07:57:58;101449.88;;;21.63;71.17
81162;BME280;70638;-33.792;151.032;2023-11-22T08:00:27;101455.02;;;21.53;71.70
81162;BME280;70638;-33.792;151.032;2023-11-22T08:02:58;101461.73;;;21.60;72.26
81162;BME280;70638;-33.792;151.032;2023-11-22T08:05:30;101464.14;;;21.56;71.99
81162;BME280;70638;-33.792;151.032;2023-11-22T08:08:00;101463.77;;;21.51;71.49
81162;BME280;70638;-33.792;151.032;2023-11-22T08:10:30;101465.69;;;21.58;72.00
81162;BME280;70638;-33.792;151.032;2023-11-22T08:13:00;101469.34;;;21.50;72.46
81162;BME280;70638;-33.792;151.032;2023-11-22T08:15:31;101470.90;;;21.46;73.16
81162;BME280;70638;-33.792;151.032;2023-11-22T08:18:02;101474.80;;;21.35;72.87
81162;BME280;70638;-33.792;151.032;2023-11-22T08:20:31;101483.34;;;21.28;72.50
81162;BME280;70638;-33.792;151.032;2023-11-22T08:23:03;101493.11;;;21.26;72.38
81162;BME280;70638;-33.792;151.032;2023-11-22T08:25:32;101495.20;;;21.18;72.46
81162;BME280;70638;-33.792;151.032;2023-11-22T08:28:04;101496.69;;;21.13;72.78
81162;BME280;70638;-33.792;151.032;2023-11-22T08:30:37;101500.31;;;21.08;73.23
81162;BME280;70638;-33.792;151.032;2023-11-22T08:33:05;101500.43;;;21.04;73.42
81162;BME280;70638;-33.792;151.032;2023-11-22T08:35:35;101496.95;;;21.00;73.82
81162;BME280;70638;-33.792;151.032;2023-11-22T08:38:07;101507.34;;;20.91;74.41
81162;BME280;70638;-33.792;151.032;2023-11-22T08:40:39;101501.12;;;20.88;74.89
81162;BME280;70638;-33.792;151.032;2023-11-22T08:43:07;101505.12;;;20.87;74.93
81162;BME280;70638;-33.792;151.032;2023-11-22T08:45:37;101502.23;;;20.85;75.66
81162;BME280;70638;-33.792;151.032;2023-11-22T08:48:07;101501.84;;;20.82;76.48
81162;BME280;70638;-33.792;151.032;2023-11-22T08:50:38;101510.64;;;20.79;76.07
81162;BME280;70638;-33.792;151.032;2023-11-22T08:53:09;101506.23;;;20.75;76.38
81162;BME280;70638;-33.792;151.032;2023-11-22T08:55:39;101513.91;;;20.74;76.54
81162;BME280;70638;-33.792;151.032;2023-11-22T08:58:11;101518.03;;;20.74;76.43
81162;BME280;70638;-33.792;151.032;2023-11-22T09:00:41;101523.64;;;20.76;76.63
81162;BME280;70638;-33.792;151.032;2023-11-22T09:03:15;101523.33;;;20.73;76.85
81162;BME280;70638;-33.792;151.032;2023-11-22T09:05:43;101532.39;;;20.73;76.85
81162;BME280;70638;-33.792;151.032;2023-11-22T09:08:17;101529.64;;;20.71;76.91
81162;BME280;70638;-33.792;151.032;2023-11-22T09:10:44;101532.15;;;20.72;76.66
81162;BME280;70638;-33.792;151.032;2023-11-22T09:13:13;101530.36;;;20.69;76.80
81162;BME280;70638;-33.792;151.032;2023-11-22T09:15:46;101536.84;;;20.72;76.67
81162;BME280;70638;-33.792;151.032;2023-11-22T09:18:17;101541.62;;;20.73;76.56
81162;BME280;70638;-33.792;151.032;2023-11-22T09:20:47;101543.56;;;20.76;76.86
81162;BME280;70638;-33.792;151.032;2023-11-22T09:23:17;101550.23;;;20.76;76.82
81162;BME280;70638;-33.792;151.032;2023-11-22T09:25:46;101545.81;;;20.75;76.65
81162;BME280;70638;-33.792;151.032;2023-11-22T09:28:18;101540.85;;;20.73;76.91
81162;BME280;70638;-33.792;151.032;2023-11-22T09:30:48;101535.48;;;20.70;77.22
81162;BME280;70638;-33.792;151.032;2023-11-22T09:33:21;101532.92;;;20.65;77.51
81162;BME280;70638;-33.792;151.032;2023-11-22T09:35:49;101541.66;;;20.60;77.69
81162;BME280;70638;-33.792;151.032;2023-11-22T09:38:18;101538.52;;;20.54;78.04
81162;BME280;70638;-33.792;151.032;2023-11-22T09:40:50;101539.79;;;20.49;78.33
81162;BME280;70638;-33.792;151.032;2023-11-22T09:43:23;101545.61;;;20.48;78.30
81162;BME280;70638;-33.792;151.032;2023-11-22T09:45:51;101549.86;;;20.47;78.70
81162;BME280;70638;-33.792;151.032;2023-11-22T09:48:21;101552.88;;;20.45;79.10
81162;BME280;70638;-33.792;151.032;2023-11-22T09:53:32;101555.03;;;20.37;79.43
81162;BME280;70638;-33.792;151.032;2023-11-22T09:55:52;101556.56;;;20.40;79.54
81162;BME280;70638;-33.792;151.032;2023-11-22T09:58:24;101565.28;;;20.40;79.50
81162;BME280;70638;-33.792;151.032;2023-11-22T10:00:54;101570.64;;;20.37;79.80
81162;BME280;70638;-33.792;151.032;2023-11-22T10:03:25;101573.81;;;20.43;79.78
81162;BME280;70638;-33.792;151.032;2023-11-22T10:05:56;101577.38;;;20.49;79.40
81162;BME280;70638;-33.792;151.032;2023-11-22T10:08:28;101581.05;;;20.49;79.43
81162;BME280;70638;-33.792;151.032;2023-11-22T10:10:56;101580.28;;;20.51;79.01
81162;BME280;70638;-33.792;151.032;2023-11-22T10:13:26;101583.97;;;20.47;79.00
81162;BME280;70638;-33.792;151.032;2023-11-22T10:16:11;101592.51;;;20.41;79.23
81162;BME280;70638;-33.792;151.032;2023-11-22T10:18:29;101596.70;;;20.36;79.88
81162;BME280;70638;-33.792;151.032;2023-11-22T10:20:57;101596.63;;;20.37;79.13
81162;BME280;70638;-33.792;151.032;2023-11-22T10:23:31;101592.86;;;20.40;79.80
81162;BME280;70638;-33.792;151.032;2023-11-22T10:25:59;101595.32;;;20.44;79.09
81162;BME280;70638;-33.792;151.032;2023-11-22T10:28:30;101602.33;;;20.46;78.92
81162;BME280;70638;-33.792;151.032;2023-11-22T10:30:59;101600.35;;;20.49;78.55
81162;BME280;70638;-33.792;151.032;2023-11-22T10:33:30;101604.36;;;20.52;79.20
81162;BME280;70638;-33.792;151.032;2023-11-22T10:36:02;101609.52;;;20.50;78.50
81162;BME280;70638;-33.792;151.032;2023-11-22T10:38:34;101611.05;;;20.49;78.68
81162;BME280;70638;-33.792;151.032;2023-11-22T10:41:05;101609.00;;;20.57;78.75
81162;BME280;70638;-33.792;151.032;2023-11-22T10:43:35;101608.74;;;20.57;78.87
81162;BME280;70638;-33.792;151.032;2023-11-22T10:46:04;101604.55;;;20.55;78.58
81162;BME280;70638;-33.792;151.032;2023-11-22T10:48:35;101600.88;;;20.51;78.70
81162;BME280;70638;-33.792;151.032;2023-11-22T10:51:05;101604.45;;;20.49;79.28
81162;BME280;70638;-33.792;151.032;2023-11-22T10:53:37;101607.56;;;20.45;79.01
81162;BME280;70638;-33.792;151.032;2023-11-22T10:56:16;101600.89;;;20.43;79.21
81162;BME280;70638;-33.792;151.032;2023-11-22T10:58:36;101599.17;;;20.39;79.58
81162;BME280;70638;-33.792;151.032;2023-11-22T11:01:09;101600.12;;;20.34;79.84
81162;BME280;70638;-33.792;151.032;2023-11-22T11:03:47;101593.83;;;20.29;80.23
81162;BME280;70638;-33.792;151.032;2023-11-22T11:06:12;101594.83;;;20.26;80.29
81162;BME280;70638;-33.792;151.032;2023-11-22T11:08:38;101597.98;;;20.26;80.38
81162;BME280;70638;-33.792;151.032;2023-11-22T11:11:09;101598.52;;;20.32;80.43
81162;BME280;70638;-33.792;151.032;2023-11-22T11:13:39;101597.66;;;20.32;80.30
81162;BME280;70638;-33.792;151.032;2023-11-22T11:16:09;101592.88;;;20.30;80.43
81162;BME280;70638;-33.792;151.032;2023-11-22T11:18:40;101593.66;;;20.29;80.81
81162;BME280;70638;-33.792;151.032;2023-11-22T11:21:10;101596.80;;;20.23;80.38
81162;BME280;70638;-33.792;151.032;2023-11-22T11:23:40;101594.08;;;20.22;80.23
81162;BME280;70638;-33.792;151.032;2023-11-22T11:26:23;101587.67;;;20.22;80.77
81162;BME280;70638;-33.792;151.032;2023-11-22T11:28:43;101589.91;;;20.16;80.38
81162;BME280;70638;-33.792;151.032;2023-11-22T11:31:11;101582.73;;;20.16;80.66
81162;BME280;70638;-33.792;151.032;2023-11-22T11:33:54;101583.32;;;20.15;80.55
81162;BME280;70638;-33.792;151.032;2023-11-22T11:36:11;101579.05;;;20.15;80.48
81162;BME280;70638;-33.792;151.032;2023-11-22T11:38:42;101575.62;;;20.15;80.21
81162;BME280;70638;-33.792;151.032;2023-11-22T11:41:13;101581.62;;;20.16;79.88
81162;BME280;70638;-33.792;151.032;2023-11-22T11:43:47;101583.26;;;20.18;80.07
81162;BME280;70638;-33.792;151.032;2023-11-22T11:46:15;101591.52;;;20.24;79.54
81162;BME280;70638;-33.792;151.032;2023-11-22T11:48:53;101597.33;;;20.19;79.64
81162;BME280;70638;-33.792;151.032;2023-11-22T11:51:15;101594.94;;;20.12;79.73
81162;BME280;70638;-33.792;151.032;2023-11-22T11:53:48;101589.99;;;20.06;79.88
81162;BME280;70638;-33.792;151.032;2023-11-22T11:56:16;101585.28;;;19.99;80.57
81162;BME280;70638;-33.792;151.032;2023-11-22T11:58:47;101586.48;;;19.93;80.60
81162;BME280;70638;-33.792;151.032;2023-11-22T12:01:17;101594.27;;;19.97;80.69
81162;BME280;70638;-33.792;151.032;2023-11-22T12:03:48;101593.50;;;20.00;80.02
81162;BME280;70638;-33.792;151.032;2023-11-22T12:06:18;101593.67;;;20.03;80.24
81162;BME280;70638;-33.792;151.032;2023-11-22T12:08:49;101596.31;;;20.01;80.10
81162;BME280;70638;-33.792;151.032;2023-11-22T12:11:20;101593.93;;;19.92;80.36
81162;BME280;70638;-33.792;151.032;2023-11-22T12:13:54;101591.69;;;19.83;80.44
81162;BME280;70638;-33.792;151.032;2023-11-22T12:16:20;101594.52;;;19.82;80.38
81162;BME280;70638;-33.792;151.032;2023-11-22T12:18:50;101597.32;;;19.77;79.97
81162;BME280;70638;-33.792;151.032;2023-11-22T12:21:20;101606.44;;;19.75;80.02
81162;BME280;70638;-33.792;151.032;2023-11-22T12:23:52;101612.95;;;19.67;80.27
81162;BME280;70638;-33.792;151.032;2023-11-22T12:26:22;101612.50;;;19.72;80.99
81162;BME280;70638;-33.792;151.032;2023-11-22T12:28:52;101612.10;;;19.76;80.80
81162;BME280;70638;-33.792;151.032;2023-11-22T12:31:24;101619.02;;;19.75;81.01
81162;BME280;70638;-33.792;151.032;2023-11-22T12:33:54;101620.80;;;19.74;79.98
81162;BME280;70638;-33.792;151.032;2023-11-22T12:36:25;101616.95;;;19.68;80.33
81162;BME280;70638;-33.792;151.032;2023-11-22T12:38:56;101619.42;;;19.71;80.78